x

West Sea Otter (46204) Wave Buoy

12:00 - Sat 3rd Dec 2016 All times are PST. -8 hours from GMT.

  • Sig Wave height 18.0ft
  • Peak Period 17s
  • Wind
    27mph, 34mph gusts
  • Sea Temp 52°f
  • Luft Temp 48°f
  • Sea Pressure 1016.2mb
  • West Sea Otter
  • West Sea Otter

More Historic Weather Station data

Upgrade to MSW Pro to gain access to the past 30 days of data for over 8000 Wavebouys and Weather Stations around the globe.

Join Pro

Comparision Forecast

View Surf forecast
   
Sa 12/03 12:00 18ft 17s 27 34 mph 1016.2mb 52f 48f
Fr 12/02 11:00 19.5ft 16s 27 36 mph 1015.8mb 52f 49f
10:00 19.5ft 17s 22 31 mph 1015.7mb 52f 50f
9:00 19.5ft 17s 22 29 mph 1015.5mb 52f 49f
8:00 18.5ft 17s 22 29 mph 1015.2mb 52f 49f
7:00 18.5ft 17s 22 31 mph 1014.8mb 52f 50f
6:00 20.5ft 17s 25 34 mph 1014mb 52f 50f
5:00 19.5ft 16s 29 38 mph 1013.4mb 52f 50f
4:00 19ft 15s 27 34 mph 1013.1mb 52f 50f
3:00 17.5ft 14s 27 36 mph 1012.3mb 52f 50f
2:00 17ft 14s 27 34 mph 1012.3mb 52f 50f
1:00 15.5ft 12s 27 34 mph 1012mb 52f 50f
12:00 14.5ft 13s 22 31 mph 1011.9mb 52f 50f
11:00 13ft 12s 27 34 mph 1011.4mb 52f 51f
10:00 12ft 12s 22 27 mph 1011.5mb 52f 51f
9:00 13ft 12s 20 27 mph 1010.6mb 52f 51f
8:00 13ft 12s 20 25 mph 1010.3mb 52f 50f
7:00 14ft 7s 27 31 mph 1009.3mb 52f 52f
6:00  -   -  22
mph
1008.6mb 52f 51f
5:00 15.5ft 8s 27 36 mph 1007.7mb 52f 52f
4:00 16ft 8s 34 45 mph 1007.4mb 52f 51f
3:00 16.5ft 8s 36 47 mph 1007.2mb 52f 51f
2:00 15ft 8s 38 45 mph 1008.6mb 52f 47f
1:00 15ft 7s 38 45 mph 1008.8mb 52f 47f
12:00 13ft 7s 38 47 mph 1009.9mb 52f 47f
Do 12/01 11:00 14ft 8s 36 45 mph 1012.5mb 52f 47f
10:00 12.5ft 7s 36 45 mph 1013.6mb 52f 47f
9:00 12ft 12s 34 43 mph 1014.5mb 52f 48f
8:00 11.5ft 12s 31 38 mph 1015.9mb 52f 48f
7:00 11ft 11s 29 36 mph 1016.2mb 52f 48f
6:00 10.5ft 12s 29 36 mph 1017mb 52f 48f
5:00 11ft 12s 27 31 mph 1017.7mb 52f 48f
4:00 11ft 12s 25 29 mph 1018.3mb 52f 48f
3:00 11ft 11s 25 29 mph 1017.3mb 52f 48f
2:00 12ft 12s 25 31 mph 1016.7mb 52f 48f
1:00 11.5ft 11s 4 9 mph 1016.8mb 52f 52f
12:00 11.5ft 7s 13 18 mph 1016.9mb 52f 52f
11:00 12ft 6s 18 27 mph 1016.4mb 52f 47f
9:00 10ft 10s 31 40 mph 1014.5mb 52f 46f
8:00 10ft 12s 29 36 mph 1014.9mb 52f 47f
7:00 10.5ft 12s 27 34 mph 1015.5mb 52f 47f
6:00 10ft 10s 25 29 mph 1016.2mb 52f 48f
5:00 9.5ft 12s 25 31 mph 1016.9mb 52f 48f
4:00 9.5ft 12s 25 29 mph 1017.1mb 52f 49f
3:00 10ft 13s 22 27 mph 1017.5mb 52f 48f
2:00 10ft 12s 20 25 mph 1018mb 52f 49f
1:00 10ft 12s 16
mph
1018.7mb 52f 49f
12:00 10ft 12s 9 13 mph 1019mb 52f 48f
Mi 11/30 11:00 11.5ft 13s 9 11 mph 1019.1mb 52f 47f
10:00 12ft 12s 9 13 mph 1019mb 52f 47f
9:00 12ft 14s 7 11 mph 1019mb 51f 48f
8:00 11.5ft 13s 9 13 mph 1018.9mb 51f 48f
7:00 11ft 11s 13 18 mph 1018.7mb 51f 47f
6:00 13ft 13s 13 20 mph 1018.4mb 51f 49f
5:00 14ft 14s 16 22 mph 1018.1mb 52f 46f
4:00 15ft 12s 16 22 mph 1017.4mb 52f 49f
2:00 15.5ft 14s 18 22 mph 1016.1mb 52f 49f
1:00 17.5ft 11s 18 22 mph 1015.7mb 52f 49f
12:00 18ft 13s 18 25 mph 1015.5mb 52f 49f
11:00 18ft 11s 22 27 mph 1014.9mb 52f 49f
10:00 17.5ft 14s 22 29 mph 1014mb 52f 50f
9:00 18.5ft 11s 22 29 mph 1012.9mb 52f 50f
8:00 18.5ft 11s 25 29 mph 1011.8mb 52f 50f
7:00 15.5ft 11s 27 34 mph 1010.5mb 52f 50f
6:00 15ft 11s 29 36 mph 1009.3mb 52f 50f
5:00 14.5ft 11s 27 38 mph 1007.9mb 53f 50f
4:00 15ft 11s 27 34 mph 1006.5mb 53f 50f
3:00 15ft 11s 25 31 mph 1005.5mb 53f 49f
2:00 14ft 11s 27 34 mph 1004.1mb 53f 48f
1:00 13.5ft 11s 27 38 mph 1002.7mb 53f 47f
12:00  -   -  25
mph
- - 47f
Di 11/29 11:00 16.5ft 11s 40 51 mph 999mb 53f 49f
10:00  -   -  40
mph
- - -
9:00  -   -  43
mph
998.3mb - 49f
8:00 18ft 8s 43 54 mph 998.7mb 53f 49f
7:00 16ft 8s 43 54 mph 998.9mb 53f 49f
6:00 17.5ft 8s 43 56 mph 999.4mb 53f 49f
5:00 16ft 8s 45 58 mph 999mb 53f 49f
4:00  -   -  45
mph
- - 49f
3:00 16.5ft 8s 45 54 mph 1001.5mb 53f 49f
2:00 16ft 8s 45 51 mph 1002.9mb 53f 49f
1:00 15ft 7s 45 56 mph 1003.9mb 53f 49f
12:00 14.5ft 8s 40 51 mph 1006.1mb 53f 49f
11:00 14ft 7s 38 47 mph 1007.6mb 53f 49f
10:00 12.5ft 7s 36 45 mph 1008.8mb 53f 48f